createdAt,value
2019-04-28T00:01:35.531Z,4.63
2019-04-28T00:04:05.269Z,4.07
2019-04-28T00:06:34.985Z,4.40
2019-04-28T00:09:06.250Z,5.83
2019-04-28T00:11:36.159Z,6.00
2019-04-28T00:14:08.235Z,5.27
2019-04-28T00:16:37.409Z,4.67
2019-04-28T00:19:07.283Z,3.77
2019-04-28T00:21:58.239Z,4.40
2019-04-28T00:24:55.921Z,4.30
2019-04-28T00:27:25.727Z,4.23
2019-04-28T00:29:55.431Z,4.50
2019-04-28T00:32:25.287Z,3.80
2019-04-28T00:34:55.169Z,4.50
2019-04-28T00:37:32.873Z,4.30
2019-04-28T00:40:02.683Z,4.47
2019-04-28T00:42:32.554Z,3.40
2019-04-28T00:45:02.362Z,4.50
2019-04-28T00:47:32.150Z,4.17
2019-04-28T00:50:02.290Z,4.30
2019-04-28T00:52:32.159Z,4.40
2019-04-28T00:55:02.012Z,4.50
2019-04-28T00:57:31.763Z,3.60
2019-04-28T01:00:02.421Z,4.47
2019-04-28T01:02:41.421Z,4.30
2019-04-28T01:05:11.454Z,3.63
2019-04-28T01:07:41.537Z,3.87
2019-04-28T01:10:13.125Z,3.97
2019-04-28T01:12:42.855Z,3.10
2019-04-28T01:15:39.653Z,3.33
2019-04-28T01:18:22.170Z,3.37
2019-04-28T01:20:51.887Z,3.47
2019-04-28T01:23:21.825Z,2.90
2019-04-28T01:25:51.591Z,3.70
2019-04-28T01:28:21.340Z,3.93
2019-04-28T01:31:21.106Z,3.30
2019-04-28T01:34:10.347Z,3.83
2019-04-28T01:36:40.444Z,3.60
2019-04-28T01:39:10.281Z,2.60
2019-04-28T01:41:40.025Z,3.20
2019-04-28T01:44:10.282Z,2.97
2019-04-28T01:46:40.222Z,2.90
2019-04-28T01:49:10.001Z,2.77
2019-04-28T01:51:41.469Z,2.83
2019-04-28T01:54:11.796Z,3.50
2019-04-28T01:56:41.584Z,2.80
2019-04-28T01:59:11.286Z,3.37
2019-04-28T02:01:41.143Z,2.17
2019-04-28T02:04:10.867Z,2.83
2019-04-28T02:06:40.568Z,2.93
2019-04-28T02:09:10.599Z,2.63
2019-04-28T02:11:41.274Z,2.30
2019-04-28T02:14:11.067Z,2.80
2019-04-28T02:16:40.805Z,3.00
2019-04-28T02:19:10.783Z,2.97
2019-04-28T02:21:55.322Z,2.97
2019-04-28T02:24:32.241Z,2.60
2019-04-28T02:27:02.078Z,2.30
2019-04-28T02:29:32.050Z,2.97
2019-04-28T02:32:02.593Z,2.43
2019-04-28T02:34:32.440Z,3.23
2019-04-28T02:37:02.344Z,2.57
2019-04-28T02:39:32.056Z,2.37
2019-04-28T02:42:02.039Z,2.30
2019-04-28T02:44:35.076Z,2.73
2019-04-28T02:47:03.446Z,2.53
2019-04-28T02:49:57.053Z,2.20
2019-04-28T02:52:44.258Z,3.03
2019-04-28T02:55:14.145Z,3.70
2019-04-28T02:57:43.911Z,2.60
2019-04-28T03:00:13.903Z,3.80
2019-04-28T03:02:43.762Z,2.57
2019-04-28T03:05:13.555Z,2.87
2019-04-28T03:07:43.418Z,2.80
2019-04-28T03:10:13.205Z,3.27
2019-04-28T03:12:43.160Z,2.67
2019-04-28T03:15:13.006Z,2.37
2019-04-28T03:17:42.753Z,3.23
2019-04-28T03:20:12.973Z,3.67
2019-04-28T03:22:42.737Z,2.30
2019-04-28T03:25:20.499Z,3.10
2019-04-28T03:28:05.545Z,2.53
2019-04-28T03:31:36.893Z,2.57
2019-04-28T03:33:48.259Z,2.33
2019-04-28T03:36:15.597Z,3.00
2019-04-28T03:38:44.489Z,2.87
2019-04-28T03:41:14.312Z,3.37
2019-04-28T03:43:44.129Z,3.40
2019-04-28T03:46:20.566Z,2.87
2019-04-28T03:48:50.967Z,2.20
2019-04-28T03:51:21.330Z,3.10
2019-04-28T03:53:51.330Z,3.07
2019-04-28T03:56:21.107Z,3.13
2019-04-28T03:58:50.928Z,2.70
2019-04-28T04:01:20.939Z,2.90
2019-04-28T04:03:51.601Z,2.30
2019-04-28T04:06:22.693Z,3.27
2019-04-28T04:08:52.721Z,3.70
2019-04-28T04:11:35.259Z,3.00
2019-04-28T04:14:27.062Z,3.43
2019-04-28T04:17:05.233Z,3.17
2019-04-28T04:19:36.293Z,3.57
2019-04-28T04:22:06.154Z,3.50
2019-04-28T04:24:35.971Z,3.10
2019-04-28T04:27:05.667Z,3.87
2019-04-28T04:29:35.384Z,3.20
2019-04-28T04:32:15.559Z,3.23
2019-04-28T04:34:40.529Z,3.97
2019-04-28T04:37:12.212Z,4.10
2019-04-28T04:39:41.049Z,3.90
2019-04-28T04:42:10.872Z,4.20
2019-04-28T04:44:41.537Z,3.50
2019-04-28T04:47:12.502Z,3.90
2019-04-28T04:49:42.454Z,4.60
2019-04-28T04:52:12.593Z,4.50
2019-04-28T04:54:42.508Z,4.20
2019-04-28T04:57:12.448Z,3.87
2019-04-28T04:59:42.278Z,4.30
2019-04-28T05:02:29.320Z,3.90
2019-04-28T05:05:00.332Z,3.80
2019-04-28T05:07:40.232Z,4.10
2019-04-28T05:10:13.297Z,3.87
2019-04-28T05:12:45.005Z,3.50
2019-04-28T05:15:18.111Z,4.23
2019-04-28T05:17:50.127Z,4.23
2019-04-28T05:20:20.549Z,4.40
2019-04-28T05:23:00.638Z,3.20
2019-04-28T05:25:39.657Z,4.40
2019-04-28T05:28:10.497Z,4.13
2019-04-28T05:30:43.077Z,4.23
2019-04-28T05:33:30.661Z,3.80
2019-04-28T05:36:02.843Z,3.97
2019-04-28T05:38:31.000Z,5.73
2019-04-28T05:41:02.692Z,4.30
2019-04-28T05:43:35.441Z,4.80
2019-04-28T05:46:05.706Z,3.60
2019-04-28T05:48:51.535Z,4.93
2019-04-28T05:51:24.918Z,5.43
2019-04-28T05:54:14.939Z,4.83
2019-04-28T05:57:05.626Z,4.90
2019-04-28T05:59:50.656Z,5.23
2019-04-28T06:02:30.545Z,6.37
2019-04-28T06:05:00.205Z,6.33
2019-04-28T06:07:40.421Z,6.00
2019-04-28T06:10:17.289Z,5.47
2019-04-28T06:12:47.211Z,6.37
2019-04-28T06:15:17.413Z,6.77
2019-04-28T06:17:49.858Z,6.30
2019-04-28T06:20:20.250Z,6.47
2019-04-28T06:22:50.633Z,7.00
2019-04-28T06:25:20.727Z,6.90
2019-04-28T06:31:30.931Z,6.83
2019-04-28T06:34:00.697Z,6.43
2019-04-28T06:36:30.454Z,7.20
2019-04-28T06:39:00.202Z,8.17
2019-04-28T06:45:40.774Z,7.90
2019-04-28T06:51:35.787Z,5.43
2019-04-28T06:54:05.575Z,7.57
2019-04-28T06:56:35.399Z,7.93
2019-04-28T06:59:05.450Z,8.60
2019-04-28T07:01:35.267Z,6.43
2019-04-28T07:04:05.123Z,7.50
2019-04-28T07:06:34.875Z,6.50
2019-04-28T07:09:06.666Z,6.53
2019-04-28T07:11:36.347Z,7.60
2019-04-28T07:14:06.126Z,6.53
2019-04-28T07:16:35.942Z,7.13
2019-04-28T07:19:05.617Z,6.67
2019-04-28T07:21:43.236Z,5.13
2019-04-28T07:24:13.120Z,6.03
2019-04-28T07:26:42.824Z,6.70
2019-04-28T07:29:13.425Z,6.50
2019-04-28T07:31:43.248Z,6.20
2019-04-28T07:34:13.078Z,7.20
2019-04-28T07:36:43.610Z,6.23
2019-04-28T07:39:13.420Z,6.70
2019-04-28T07:41:43.213Z,7.90
2019-04-28T07:44:13.255Z,6.70
2019-04-28T07:46:43.030Z,6.23
2019-04-28T07:49:12.795Z,6.53
2019-04-28T07:52:01.595Z,6.73
2019-04-28T07:54:31.406Z,6.13
2019-04-28T07:57:01.085Z,6.90
2019-04-28T07:59:30.932Z,6.30
2019-04-28T08:02:00.767Z,4.83
2019-04-28T08:04:30.509Z,7.23
2019-04-28T08:07:00.323Z,5.63
2019-04-28T08:09:30.086Z,6.37
2019-04-28T08:11:59.909Z,5.43
2019-04-28T08:14:29.656Z,5.77
2019-04-28T08:16:59.442Z,6.43
2019-04-28T08:19:29.237Z,5.30
2019-04-28T08:21:59.036Z,5.10
2019-04-28T08:24:28.851Z,5.73
2019-04-28T08:26:58.790Z,5.17
2019-04-28T08:29:28.652Z,4.70
2019-04-28T08:32:15.585Z,5.20
2019-04-28T08:34:45.322Z,5.30
2019-04-28T08:37:15.096Z,6.03
2019-04-28T08:39:45.046Z,5.37
2019-04-28T08:42:14.718Z,4.87
2019-04-28T08:44:45.126Z,4.77
2019-04-28T08:47:15.120Z,4.63
2019-04-28T08:49:44.883Z,4.53
2019-04-28T08:52:14.702Z,4.43
2019-04-28T08:54:44.574Z,4.43
2019-04-28T08:57:14.538Z,4.53
2019-04-28T08:59:44.316Z,3.83
2019-04-28T09:02:14.213Z,4.23
2019-04-28T09:04:44.012Z,4.67
2019-04-28T09:07:13.823Z,4.80
2019-04-28T09:09:43.604Z,4.77
2019-04-28T09:12:13.415Z,3.80
2019-04-28T09:14:43.149Z,4.87
2019-04-28T09:17:13.022Z,4.47
2019-04-28T09:19:42.899Z,3.83
2019-04-28T09:22:12.668Z,3.63
2019-04-28T09:24:42.437Z,4.43
2019-04-28T09:27:12.197Z,3.77
2019-04-28T09:29:42.023Z,3.90
2019-04-28T09:32:11.891Z,3.53
2019-04-28T09:34:41.730Z,3.73
2019-04-28T09:37:11.551Z,4.37
2019-04-28T09:39:51.864Z,3.57
2019-04-28T09:42:39.015Z,3.90
2019-04-28T09:45:15.091Z,4.40
2019-04-28T09:47:45.293Z,3.97
2019-04-28T09:50:15.265Z,4.53
2019-04-28T09:52:45.129Z,3.73
2019-04-28T09:55:14.998Z,4.80
2019-04-28T09:57:44.664Z,4.70
2019-04-28T10:00:15.317Z,3.97
2019-04-28T10:02:45.153Z,4.50
2019-04-28T10:05:14.906Z,4.70
2019-04-28T10:07:44.603Z,4.23
2019-04-28T10:10:14.953Z,4.40
2019-04-28T10:12:44.728Z,3.80
2019-04-28T10:15:14.921Z,4.30
2019-04-28T10:17:44.688Z,4.27
2019-04-28T10:20:15.053Z,4.67
2019-04-28T10:22:44.789Z,3.87
2019-04-28T10:25:14.759Z,4.20
2019-04-28T10:27:44.527Z,4.57
2019-04-28T10:30:14.599Z,4.13
2019-04-28T10:32:44.259Z,3.53
2019-04-28T10:35:15.593Z,3.87
2019-04-28T10:37:45.750Z,3.73
2019-04-28T10:40:44.163Z,4.17
2019-04-28T10:43:13.952Z,5.10
2019-04-28T10:45:46.570Z,4.10
2019-04-28T10:48:16.422Z,4.97
2019-04-28T10:50:46.269Z,4.87
2019-04-28T10:53:16.156Z,5.60
2019-04-28T10:55:45.957Z,4.53
2019-04-28T10:58:15.853Z,5.47
2019-04-28T11:00:45.709Z,5.30
2019-04-28T11:03:15.532Z,5.43
2019-04-28T11:05:45.866Z,5.53
2019-04-28T11:08:49.581Z,5.90
2019-04-28T11:11:28.780Z,6.03
2019-04-28T11:13:58.651Z,5.30
2019-04-28T11:16:32.490Z,5.20
2019-04-28T11:19:02.335Z,5.50
2019-04-28T11:21:32.047Z,5.57
2019-04-28T11:24:01.762Z,5.13
2019-04-28T11:26:31.593Z,5.73
2019-04-28T11:29:01.505Z,6.10
2019-04-28T11:31:31.307Z,5.33
2019-04-28T11:34:13.327Z,5.73
2019-04-28T11:36:43.196Z,5.83
2019-04-28T11:39:17.624Z,5.50
2019-04-28T11:41:47.513Z,6.00
2019-04-28T11:44:17.288Z,4.97
2019-04-28T11:46:47.059Z,5.90
2019-04-28T11:49:16.816Z,5.53
2019-04-28T11:51:46.529Z,5.97
2019-04-28T11:54:16.683Z,6.03
2019-04-28T11:56:46.544Z,6.07
2019-04-28T11:59:16.490Z,5.63
2019-04-28T12:01:47.055Z,4.47
2019-04-28T12:04:21.105Z,4.50
2019-04-28T12:06:51.356Z,4.50
2019-04-28T12:09:35.765Z,5.27
2019-04-28T12:12:09.360Z,5.10
2019-04-28T12:15:01.077Z,4.70
2019-04-28T12:17:45.850Z,4.93
2019-04-28T12:20:21.095Z,5.70
2019-04-28T12:22:50.776Z,5.90
2019-04-28T12:25:20.492Z,6.20
2019-04-28T12:27:50.208Z,5.27
2019-04-28T12:30:19.998Z,6.07
2019-04-28T12:32:49.833Z,5.40
2019-04-28T12:35:19.586Z,5.63
2019-04-28T12:37:49.388Z,5.93
2019-04-28T12:40:19.255Z,4.73
2019-04-28T12:42:48.990Z,5.83
2019-04-28T12:45:18.761Z,6.30
2019-04-28T12:47:48.400Z,4.97
2019-04-28T12:50:23.974Z,5.47
2019-04-28T12:52:53.650Z,5.57
2019-04-28T12:55:23.460Z,5.57
2019-04-28T12:57:53.264Z,5.40
2019-04-28T13:00:43.460Z,5.10
2019-04-28T13:03:32.298Z,5.70
2019-04-28T13:06:05.785Z,4.77
2019-04-28T13:08:38.034Z,5.50
2019-04-28T13:11:07.775Z,4.37
2019-04-28T13:13:37.531Z,5.00
2019-04-28T13:16:07.389Z,5.17
2019-04-28T13:18:37.636Z,4.63
2019-04-28T13:21:07.396Z,5.37
2019-04-28T13:23:37.109Z,4.63
2019-04-28T13:26:06.950Z,6.00
2019-04-28T13:28:36.804Z,5.67
2019-04-28T13:31:06.736Z,4.93
2019-04-28T13:33:36.540Z,4.57
2019-04-28T13:36:14.720Z,4.87
2019-04-28T13:38:37.701Z,5.27
2019-04-28T13:41:07.425Z,5.43
2019-04-28T13:43:37.215Z,4.37
2019-04-28T13:46:07.144Z,4.60
2019-04-28T13:48:37.034Z,5.17
2019-04-28T13:51:06.914Z,4.30
2019-04-28T13:53:36.718Z,4.70
2019-04-28T13:56:06.517Z,4.93
2019-04-28T13:58:45.501Z,5.07
2019-04-28T14:01:37.310Z,4.73
2019-04-28T14:04:26.144Z,4.77
2019-04-28T14:06:59.562Z,4.63
2019-04-28T14:09:29.343Z,5.30
2019-04-28T14:11:59.041Z,5.10
2019-04-28T14:14:28.829Z,5.03
2019-04-28T14:16:58.571Z,5.03
2019-04-28T14:19:28.415Z,5.33
2019-04-28T14:21:58.135Z,4.43
2019-04-28T14:24:27.864Z,4.97
2019-04-28T14:26:57.698Z,4.93
2019-04-28T14:29:27.566Z,5.30
2019-04-28T14:31:57.323Z,5.00
2019-04-28T14:34:27.039Z,5.73
2019-04-28T14:36:56.714Z,5.03
2019-04-28T14:39:26.534Z,4.87
2019-04-28T14:41:56.273Z,5.30
2019-04-28T14:47:57.980Z,5.33
2019-04-28T14:50:27.728Z,5.13
2019-04-28T14:52:57.629Z,5.27
2019-04-28T14:55:27.426Z,5.10
2019-04-28T14:57:57.202Z,5.73
2019-04-28T15:00:33.497Z,5.23
2019-04-28T15:03:07.223Z,4.53
2019-04-28T15:06:18.278Z,4.60
2019-04-28T15:08:59.254Z,5.40
2019-04-28T15:11:39.138Z,4.43
2019-04-28T15:14:08.858Z,5.40
2019-04-28T15:16:38.656Z,5.43
2019-04-28T15:19:08.413Z,5.57
2019-04-28T15:21:38.236Z,4.53
2019-04-28T15:24:08.075Z,6.30
2019-04-28T15:26:37.859Z,5.23
2019-04-28T15:29:07.743Z,4.83
2019-04-28T15:31:37.865Z,5.27
2019-04-28T15:34:07.717Z,4.30
2019-04-28T15:36:37.595Z,5.17
2019-04-28T15:39:10.324Z,4.83
2019-04-28T15:41:40.071Z,4.70
2019-04-28T15:47:41.842Z,4.50
2019-04-28T15:50:11.754Z,4.27
2019-04-28T15:52:41.499Z,5.20
2019-04-28T15:55:13.471Z,5.23
2019-04-28T16:04:08.915Z,5.57
2019-04-28T16:06:38.679Z,6.23
2019-04-28T16:09:12.733Z,5.57
2019-04-28T16:11:45.541Z,5.40
2019-04-28T16:14:15.306Z,5.90
2019-04-28T16:16:45.260Z,6.33
2019-04-28T16:19:15.003Z,6.40
2019-04-28T16:21:44.893Z,5.20
2019-04-28T16:24:16.880Z,5.20
2019-04-28T16:26:47.204Z,6.33
2019-04-28T16:29:17.143Z,5.33
2019-04-28T16:31:47.451Z,5.40
2019-04-28T16:34:17.331Z,6.93
2019-04-28T16:36:47.230Z,6.40
2019-04-28T16:39:16.979Z,6.97
2019-04-28T16:41:51.433Z,6.07
2019-04-28T16:44:21.286Z,6.77
2019-04-28T16:46:51.134Z,7.03
2019-04-28T16:49:21.076Z,6.50
2019-04-28T16:51:50.770Z,6.53
2019-04-28T16:54:20.668Z,6.10
2019-04-28T16:57:06.762Z,5.93
2019-04-28T16:59:43.608Z,7.10
2019-04-28T17:02:38.717Z,5.53
2019-04-28T17:05:10.752Z,5.53
2019-04-28T17:07:52.010Z,5.17
2019-04-28T17:10:12.144Z,5.03
2019-04-28T17:12:42.137Z,5.83
2019-04-28T17:15:12.328Z,5.27
2019-04-28T17:17:42.145Z,5.23
2019-04-28T17:20:31.398Z,5.40
2019-04-28T17:23:15.766Z,5.07
2019-04-28T17:25:48.981Z,4.47
2019-04-28T17:28:22.353Z,5.13
2019-04-28T17:30:55.258Z,4.73
2019-04-28T17:33:27.178Z,5.53
2019-04-28T17:35:57.873Z,5.30
2019-04-28T17:38:28.714Z,5.17
2019-04-28T17:41:21.294Z,4.83
2019-04-28T17:43:54.921Z,4.23
2019-04-28T17:46:25.242Z,6.00
2019-04-28T17:49:02.399Z,5.70
2019-04-28T17:51:32.576Z,4.90
2019-04-28T17:54:12.200Z,5.37
2019-04-28T17:56:44.586Z,5.00
2019-04-28T17:59:14.825Z,5.30
2019-04-28T18:02:12.285Z,4.63
2019-04-28T18:05:17.427Z,5.63
2019-04-28T18:07:56.437Z,4.93
2019-04-28T18:10:31.611Z,4.70
2019-04-28T18:13:02.268Z,6.30
2019-04-28T18:16:07.942Z,6.37
2019-04-28T18:18:44.985Z,5.57
2019-04-28T18:21:15.048Z,5.80
2019-04-28T18:23:51.010Z,5.40
2019-04-28T18:26:24.842Z,6.57
2019-04-28T18:28:54.682Z,5.33
2019-04-28T18:32:00.931Z,5.47
2019-04-28T18:34:51.657Z,6.73
2019-04-28T18:37:43.494Z,6.50
2019-04-28T18:40:48.071Z,5.63
2019-04-28T18:43:24.738Z,7.07
2019-04-28T18:45:55.339Z,6.93
2019-04-28T18:48:27.373Z,6.63
2019-04-28T18:50:57.471Z,7.33
2019-04-28T18:53:28.070Z,5.40
2019-04-28T18:55:58.751Z,6.60
2019-04-28T18:58:32.313Z,6.90
2019-04-28T19:01:21.552Z,7.23
2019-04-28T19:03:53.865Z,6.87
2019-04-28T19:06:25.315Z,5.90
2019-04-28T19:09:07.259Z,6.73
2019-04-28T19:11:46.174Z,7.37
2019-04-28T19:14:44.948Z,6.73
2019-04-28T19:17:28.443Z,6.70
2019-04-28T19:19:59.454Z,5.80
2019-04-28T19:22:29.755Z,7.30
2019-04-28T19:25:03.256Z,7.00
2019-04-28T19:27:35.253Z,6.27
2019-04-28T19:33:45.150Z,6.57
2019-04-28T19:36:14.995Z,6.67
2019-04-28T19:38:44.839Z,8.03
2019-04-28T19:41:14.738Z,8.07
2019-04-28T19:47:21.773Z,7.90
2019-04-28T19:49:51.651Z,7.73
2019-04-28T19:52:21.477Z,5.87
2019-04-28T19:55:18.221Z,6.37
2019-04-28T20:04:01.521Z,7.67
2019-04-28T20:06:31.501Z,7.70
2019-04-28T20:09:01.293Z,6.40
2019-04-28T20:11:31.157Z,7.77
2019-04-28T20:14:00.981Z,7.77
2019-04-28T20:16:30.791Z,8.40
2019-04-28T20:19:00.825Z,8.23
2019-04-28T20:21:30.689Z,6.77
2019-04-28T20:24:00.773Z,6.47
2019-04-28T20:26:30.600Z,8.53
2019-04-28T20:32:45.756Z,8.13
2019-04-28T20:35:18.515Z,8.77
2019-04-28T20:38:02.624Z,8.70
2019-04-28T20:40:38.235Z,7.73
2019-04-28T20:43:18.955Z,7.93
2019-04-28T20:45:48.771Z,7.33
2019-04-28T20:48:18.688Z,6.33
2019-04-28T20:50:48.403Z,7.43
2019-04-28T20:53:19.403Z,7.17
2019-04-28T20:55:49.410Z,7.53
2019-04-28T21:02:30.962Z,8.67
2019-04-28T21:05:00.876Z,8.07
2019-04-28T21:07:30.759Z,7.57
2019-04-28T21:10:00.803Z,7.47
2019-04-28T21:12:30.686Z,9.30
2019-04-28T21:15:00.482Z,8.87
2019-04-28T21:17:30.411Z,6.20
2019-04-28T21:20:00.517Z,7.20
2019-04-28T21:22:30.486Z,9.63
2019-04-28T21:25:00.421Z,8.63
2019-04-28T21:27:30.278Z,7.57
2019-04-28T21:37:04.072Z,8.37
2019-04-28T21:39:33.910Z,9.17
2019-04-28T21:42:05.437Z,8.90
2019-04-28T21:44:53.088Z,9.63
2019-04-28T21:47:26.650Z,8.77
2019-04-28T21:49:56.499Z,9.57
2019-04-28T21:52:26.419Z,8.10
2019-04-28T21:54:56.428Z,9.10
2019-04-28T21:57:26.278Z,9.03
2019-04-28T22:03:28.114Z,10.50
2019-04-28T22:05:58.066Z,9.30
2019-04-28T22:08:27.992Z,10.10
2019-04-28T22:10:57.931Z,10.13
2019-04-28T22:13:27.934Z,9.00
2019-04-28T22:15:57.649Z,9.10
2019-04-28T22:18:27.579Z,10.50
2019-04-28T22:20:57.524Z,9.47
2019-04-28T22:23:36.563Z,11.03
2019-04-28T22:26:08.110Z,9.83
2019-04-28T22:28:37.970Z,9.27
2019-04-28T22:31:07.843Z,9.83
2019-04-28T22:33:37.738Z,8.47
2019-04-28T22:36:12.052Z,8.63
2019-04-28T22:38:42.098Z,8.40
2019-04-28T22:41:11.888Z,8.90
2019-04-28T22:43:41.800Z,10.17
2019-04-28T22:46:11.716Z,9.77
2019-04-28T22:48:41.470Z,10.57
2019-04-28T22:51:11.354Z,10.00
2019-04-28T22:53:41.152Z,6.93
2019-04-28T22:56:28.645Z,6.93
2019-04-28T22:59:03.301Z,8.30
2019-04-28T23:01:36.950Z,9.63
2019-04-28T23:04:22.299Z,9.97
2019-04-28T23:06:52.242Z,9.80
2019-04-28T23:09:22.140Z,11.13
2019-04-28T23:11:52.042Z,11.00
2019-04-28T23:18:02.594Z,7.70
2019-04-28T23:20:34.030Z,8.60
2019-04-28T23:23:05.579Z,9.37
2019-04-28T23:25:35.474Z,10.37
2019-04-28T23:28:05.462Z,10.43
2019-04-28T23:30:37.512Z,10.60
2019-04-28T23:33:07.440Z,9.17
2019-04-28T23:35:37.141Z,7.13
2019-04-28T23:38:06.906Z,9.70
2019-04-28T23:40:38.230Z,8.27
2019-04-28T23:43:11.840Z,10.80
2019-04-28T23:49:22.346Z,7.73
2019-04-28T23:52:11.210Z,8.20
2019-04-28T23:54:42.940Z,10.07
2019-04-28T23:57:12.876Z,8.77
2019-04-28T23:59:42.822Z,9.60
